Time;durP1;ratioP1;P1;durP2;ratioP2;P2;SDS_P1;SDS_P2;PMS_P1;PMS_P2;Temp;Humidity;BMP_temperature;BMP_pressure;BME280_temperature;BME280_humidity;BME280_pressure;Samples;Min_cycle;Max_cycle;Signal;HPM_P1;HPM_P2
2022/09/07 00:01:25;;;;;;;;;;;;;;;;;;5175204;27;19922;-45
2022/09/07 00:03:54;;;;;;;;;;;;;;;;;;5175189;27;19929;-43
2022/09/07 00:06:21;;;;;;;;;;;;;;;;;;5175008;27;19923;-41
2022/09/07 00:08:49;;;;;;;;;;;;;;;;;;5175000;27;19923;-39
2022/09/07 00:11:17;;;;;;;;;;;;;;;;;;5174578;27;19927;-42
2022/09/07 00:13:47;;;;;;;;;;;;;;;;;;5175108;27;20458;-43
2022/09/07 00:16:15;;;;;;;;;;;;;;;;;;5174968;27;19922;-45
2022/09/07 00:18:43;;;;;;;;;;;;;;;;;;5175139;27;20103;-41
2022/09/07 00:21:12;;;;;;;;;;;;;;;;;;5174616;27;19929;-49
2022/09/07 00:23:40;;;;;;;;;;;;;;;;;;5174923;27;19929;-49
2022/09/07 00:26:09;;;;;;;;;;;;;;;;;;5175005;27;19934;-41
2022/09/07 00:28:36;;;;;;;;;;;;;;;;;;5156855;27;19979;-41
2022/09/07 00:31:08;;;;;;;;;;;;;;;;;;5174971;27;20017;-41
2022/09/07 00:33:35;;;;;;;;;;;;;;;;;;5175000;27;19930;-41
2022/09/07 00:36:03;;;;;;;;;;;;;;;;;;5174909;27;20365;-40
2022/09/07 00:38:31;;;;;;;;;;;;;;;;;;5174563;27;20347;-39
2022/09/07 00:40:59;;;;;;;;;;;;;;;;;;5174712;27;20385;-41
2022/09/07 00:43:37;;;;;;;;;;;;;;;;;;5174744;27;20389;-41
2022/09/07 00:46:05;;;;;;;;;;;;;;;;;;5174715;27;19975;-42
2022/09/07 00:48:54;;;;;;;;;;;;;;;;;;5174645;27;19926;-40
2022/09/07 00:51:41;;;;;;;;;;;;;;;;;;5174263;27;19937;-44
2022/09/07 00:54:11;;;;;;;;;;;;;;;;;;5155800;27;20370;-40
2022/09/07 00:56:42;;;;;;;;;;;;;;;;;;5174484;27;19927;-45
2022/09/07 00:59:14;;;;;;;;;;;;;;;;;;5174120;27;19930;-44
2022/09/07 01:01:41;;;;;;;;;;;;;;;;;;5174393;27;19931;-42
2022/09/07 01:04:08;;;;;;;;;;;;;;;;;;5174199;27;19923;-40
2022/09/07 01:06:37;;;;;;;;;;;;;;;;;;5174681;27;20335;-51
2022/09/07 01:09:06;;;;;;;;;;;;;;;;;;5174357;27;19929;-43
2022/09/07 01:11:34;;;;;;;;;;;;;;;;;;5174598;27;19923;-45
2022/09/07 01:14:03;;;;;;;;;;;;;;;;;;5174335;27;19970;-43
2022/09/07 01:16:30;;;;;;;;;;;;;;;;;;5174252;27;19930;-48
2022/09/07 01:19:16;;;;;;;;;;;;;;;;;;5174202;27;20346;-42
2022/09/07 01:21:44;;;;;;;;;;;;;;;;;;5174326;27;19922;-50
2022/09/07 01:24:33;;;;;;;;;;;;;;;;;;5177502;27;20021;-47
2022/09/07 01:27:19;;;;;;;;;;;;;;;;;;5178150;27;19954;-47
2022/09/07 01:29:49;;;;;;;;;;;;;;;;;;5177951;27;20021;-47
2022/09/07 01:32:33;;;;;;;;;;;;;;;;;;5177848;27;19927;-43
2022/09/07 01:35:02;;;;;;;;;;;;;;;;;;5178081;27;19927;-44
2022/09/07 01:37:29;;;;;;;;;;;;;;;;;;5177834;27;20017;-46
2022/09/07 01:40:05;;;;;;;;;;;;;;;;;;5159245;27;19981;-42
2022/09/07 01:42:38;;;;;;;;;;;;;;;;;;5177915;27;19927;-46
2022/09/07 01:45:10;;;;;;;;;;;;;;;;;;5178053;27;19923;-41
2022/09/07 01:47:56;;;;;;;;;;;;;;;;;;5178050;27;20376;-46
2022/09/07 01:50:30;;;;;;;;;;;;;;;;;;5177685;27;20266;-43
2022/09/07 01:53:08;;;;;;;;;;;;;;;;;;5177515;27;19998;-42
2022/09/07 01:55:42;;;;;;;;;;;;;;;;;;5177800;27;19930;-45
2022/09/07 01:58:16;;;;;;;;;;;;;;;;;;5177315;27;19923;-47
2022/09/07 02:00:49;;;;;;;;;;;;;;;;;;5177762;27;19923;-49
2022/09/07 02:03:20;;;;;;;;;;;;;;;;;;5172446;27;20009;-45
2022/09/07 02:05:57;;;;;;;;;;;;;;;;;;5156707;27;19923;-47
2022/09/07 02:08:30;;;;;;;;;;;;;;;;;;5156202;27;20021;-46
2022/09/07 02:11:02;;;;;;;;;;;;;;;;;;5156439;27;19938;-46
2022/09/07 02:13:36;;;;;;;;;;;;;;;;;;5156224;27;20438;-44
2022/09/07 02:16:06;;;;;;;;;;;;;;;;;;5156199;27;19933;-42
2022/09/07 02:18:38;;;;;;;;;;;;;;;;;;5156070;27;19927;-47
2022/09/07 02:21:07;;;;;;;;;;;;;;;;;;5175654;27;19930;-50
2022/09/07 02:23:39;;;;;;;;;;;;;;;;;;5177135;27;19923;-41
2022/09/07 02:26:11;;;;;;;;;;;;;;;;;;5177186;27;20332;-41
2022/09/07 02:28:38;;;;;;;;;;;;;;;;;;5176786;27;19947;-40
2022/09/07 02:31:07;;;;;;;;;;;;;;;;;;5158249;27;19974;-48
2022/09/07 02:33:34;;;;;;;;;;;;;;;;;;5176824;27;19965;-48
2022/09/07 02:36:03;;;;;;;;;;;;;;;;;;5176374;27;19929;-41
2022/09/07 02:38:30;;;;;;;;;;;;;;;;;;5176507;27;19927;-41
2022/09/07 02:40:59;;;;;;;;;;;;;;;;;;5176767;27;19934;-41
2022/09/07 02:43:27;;;;;;;;;;;;;;;;;;5176583;27;19930;-40
2022/09/07 02:46:12;;;;;;;;;;;;;;;;;;5176654;27;19939;-41
2022/09/07 02:48:46;;;;;;;;;;;;;;;;;;5158160;27;19923;-40
2022/09/07 02:51:22;;;;;;;;;;;;;;;;;;5176351;27;19980;-41
2022/09/07 02:53:49;;;;;;;;;;;;;;;;;;5176101;27;19946;-40
2022/09/07 02:56:16;;;;;;;;;;;;;;;;;;5176217;27;19934;-41
2022/09/07 02:58:57;;;;;;;;;;;;;;;;;;5157158;27;19923;-41
2022/09/07 03:01:43;;;;;;;;;;;;;;;;;;5176081;27;19923;-40
2022/09/07 03:04:11;;;;;;;;;;;;;;;;;;5176105;27;19923;-43
2022/09/07 03:06:40;;;;;;;;;;;;;;;;;;5176270;27;20021;-41
2022/09/07 03:09:14;;;;;;;;;;;;;;;;;;5176166;27;19923;-41
2022/09/07 03:11:41;;;;;;;;;;;;;;;;;;5176135;27;19945;-41
2022/09/07 03:14:16;;;;;;;;;;;;;;;;;;5176335;27;19922;-41
2022/09/07 03:16:45;;;;;;;;;;;;;;;;;;5176057;27;19922;-42
2022/09/07 03:19:12;;;;;;;;;;;;;;;;;;5174090;27;19933;-40
2022/09/07 03:21:39;;;;;;;;;;;;;;;;;;5175981;27;19922;-40
2022/09/07 03:24:07;;;;;;;;;;;;;;;;;;5175796;27;20341;-42
2022/09/07 03:26:39;;;;;;;;;;;;;;;;;;5162135;27;19923;-42
2022/09/07 03:29:07;;;;;;;;;;;;;;;;;;5154816;27;19923;-41
2022/09/07 03:31:35;;;;;;;;;;;;;;;;;;5154768;27;20304;-41
2022/09/07 03:34:03;;;;;;;;;;;;;;;;;;5154646;27;19934;-46
2022/09/07 03:36:31;;;;;;;;;;;;;;;;;;5154710;27;19934;-40
2022/09/07 03:39:02;;;;;;;;;;;;;;;;;;5154632;27;20376;-41
2022/09/07 03:41:32;;;;;;;;;;;;;;;;;;5154152;27;19927;-42
2022/09/07 03:44:03;;;;;;;;;;;;;;;;;;5154149;27;19923;-43
2022/09/07 03:46:31;;;;;;;;;;;;;;;;;;5153658;27;19973;-40
2022/09/07 03:48:58;;;;;;;;;;;;;;;;;;5154444;27;19923;-47
2022/09/07 03:51:26;;;;;;;;;;;;;;;;;;5154316;27;20007;-42
2022/09/07 03:53:53;;;;;;;;;;;;;;;;;;5154218;27;19927;-43
2022/09/07 03:56:22;;;;;;;;;;;;;;;;;;5153633;27;19923;-42
2022/09/07 03:58:49;;;;;;;;;;;;;;;;;;5154219;27;20428;-42
2022/09/07 04:01:18;;;;;;;;;;;;;;;;;;5135385;27;19927;-41
2022/09/07 04:03:46;;;;;;;;;;;;;;;;;;5153945;27;19930;-44
2022/09/07 04:06:14;;;;;;;;;;;;;;;;;;5154051;27;19981;-42
2022/09/07 04:08:42;;;;;;;;;;;;;;;;;;5153951;27;20029;-40
2022/09/07 04:11:11;;;;;;;;;;;;;;;;;;5154095;27;19923;-42
2022/09/07 04:13:38;;;;;;;;;;;;;;;;;;5154437;27;19970;-42
2022/09/07 04:16:10;;;;;;;;;;;;;;;;;;5154142;27;20293;-42
2022/09/07 04:18:37;;;;;;;;;;;;;;;;;;5154518;27;20338;-42
2022/09/07 04:21:04;;;;;;;;;;;;;;;;;;5174406;27;19923;-42
2022/09/07 04:23:32;;;;;;;;;;;;;;;;;;5174833;27;20284;-43
2022/09/07 04:25:59;;;;;;;;;;;;;;;;;;5174908;27;19968;-41
2022/09/07 04:28:26;;;;;;;;;;;;;;;;;;5174639;27;19933;-42
2022/09/07 04:30:53;;;;;;;;;;;;;;;;;;5174996;27;19979;-40
2022/09/07 04:33:20;;;;;;;;;;;;;;;;;;5174455;27;20001;-57
2022/09/07 04:35:48;;;;;;;;;;;;;;;;;;5174726;27;20305;-48
2022/09/07 04:38:15;;;;;;;;;;;;;;;;;;5174598;27;19971;-42
2022/09/07 04:40:42;;;;;;;;;;;;;;;;;;5156117;27;20296;-50
2022/09/07 04:43:11;;;;;;;;;;;;;;;;;;5174882;27;19930;-42
2022/09/07 04:45:39;;;;;;;;;;;;;;;;;;5174735;27;20056;-49
2022/09/07 04:48:06;;;;;;;;;;;;;;;;;;5174722;27;19923;-43
2022/09/07 04:50:33;;;;;;;;;;;;;;;;;;5174336;27;19927;-43
2022/09/07 04:53:01;;;;;;;;;;;;;;;;;;5174531;27;20301;-42
2022/09/07 04:55:28;;;;;;;;;;;;;;;;;;5174285;27;20301;-41
2022/09/07 04:57:55;;;;;;;;;;;;;;;;;;5175707;27;20305;-39
2022/09/07 05:00:22;;;;;;;;;;;;;;;;;;5178378;27;20009;-42
2022/09/07 05:02:49;;;;;;;;;;;;;;;;;;5178006;27;19923;-42
2022/09/07 05:05:17;;;;;;;;;;;;;;;;;;5178051;27;19933;-43
2022/09/07 05:07:44;;;;;;;;;;;;;;;;;;5178189;27;19926;-42
2022/09/07 05:10:11;;;;;;;;;;;;;;;;;;5178359;27;19926;-43
2022/09/07 05:12:38;;;;;;;;;;;;;;;;;;5177797;27;19930;-45
2022/09/07 05:15:06;;;;;;;;;;;;;;;;;;5177491;27;20450;-42
2022/09/07 05:17:34;;;;;;;;;;;;;;;;;;5178181;27;20003;-42
2022/09/07 05:20:01;;;;;;;;;;;;;;;;;;5176348;27;19923;-42
2022/09/07 05:22:29;;;;;;;;;;;;;;;;;;5177576;27;19934;-43
2022/09/07 05:24:56;;;;;;;;;;;;;;;;;;5178046;27;19992;-46
2022/09/07 05:27:24;;;;;;;;;;;;;;;;;;5177785;27;19934;-43
2022/09/07 05:29:51;;;;;;;;;;;;;;;;;;5177766;27;19923;-46
2022/09/07 05:32:25;;;;;;;;;;;;;;;;;;5177895;27;20338;-43
2022/09/07 05:34:52;;;;;;;;;;;;;;;;;;5177742;27;19995;-46
2022/09/07 05:37:20;;;;;;;;;;;;;;;;;;5177819;27;19972;-53
2022/09/07 05:39:47;;;;;;;;;;;;;;;;;;5177344;27;19958;-43
2022/09/07 05:42:14;;;;;;;;;;;;;;;;;;5176918;27;19961;-45
2022/09/07 05:44:41;;;;;;;;;;;;;;;;;;5177287;27;20327;-48
2022/09/07 05:47:13;;;;;;;;;;;;;;;;;;5176770;27;19923;-45
2022/09/07 05:49:40;;;;;;;;;;;;;;;;;;5174930;27;20422;-46
2022/09/07 05:52:08;;;;;;;;;;;;;;;;;;5177867;27;20418;-46
2022/09/07 05:54:35;;;;;;;;;;;;;;;;;;5177530;27;19934;-44
2022/09/07 05:57:03;;;;;;;;;;;;;;;;;;5177295;27;19933;-45
2022/09/07 05:59:30;;;;;;;;;;;;;;;;;;5176391;27;19977;-47
2022/09/07 06:01:57;;;;;;;;;;;;;;;;;;5175327;27;19923;-45
2022/09/07 06:04:24;;;;;;;;;;;;;;;;;;5175224;27;19933;-45
2022/09/07 06:06:51;;;;;;;;;;;;;;;;;;5175866;27;20010;-46
2022/09/07 06:09:39;;;;;;;;;;;;;;;;;;5175129;27;19923;-42
2022/09/07 06:12:27;;;;;;;;;;;;;;;;;;5175546;27;19935;-45
2022/09/07 06:14:54;;;;;;;;;;;;;;;;;;5176084;27;19947;-42
2022/09/07 06:17:21;;;;;;;;;;;;;;;;;;5177064;27;19929;-45
2022/09/07 06:19:48;;;;;;;;;;;;;;;;;;5176949;27;20357;-48
2022/09/07 06:22:15;;;;;;;;;;;;;;;;;;5176795;27;19923;-50
2022/09/07 06:24:42;;;;;;;;;;;;;;;;;;5177006;27;20266;-39
2022/09/07 06:27:10;;;;;;;;;;;;;;;;;;5177261;27;19938;-43
2022/09/07 06:29:37;;;;;;;;;;;;;;;;;;5177014;27;19948;-42
2022/09/07 06:32:04;;;;;;;;;;;;;;;;;;5176874;27;19927;-45
2022/09/07 06:34:52;;;;;;;;;;;;;;;;;;5176845;27;20337;-46
2022/09/07 06:37:19;;;;;;;;;;;;;;;;;;5176616;27;19929;-47
2022/09/07 06:39:48;;;;;;;;;;;;;;;;;;5176486;27;19922;-50
2022/09/07 06:42:15;;;;;;;;;;;;;;;;;;5176657;27;19923;-49
2022/09/07 06:44:43;;;;;;;;;;;;;;;;;;5157578;27;19930;-51
2022/09/07 06:47:12;;;;;;;;;;;;;;;;;;5176625;27;20430;-41
2022/09/07 06:49:40;;;;;;;;;;;;;;;;;;5176566;27;19922;-46
2022/09/07 06:52:08;;;;;;;;;;;;;;;;;;5176496;27;19975;-45
2022/09/07 06:54:35;;;;;;;;;;;;;;;;;;5176631;27;20022;-46
2022/09/07 06:57:22;;;;;;;;;;;;;;;;;;5176153;27;19929;-47
2022/09/07 06:59:49;;;;;;;;;;;;;;;;;;5176142;27;20022;-48
2022/09/07 07:02:17;;;;;;;;;;;;;;;;;;5176073;27;19945;-42
2022/09/07 07:04:45;;;;;;;;;;;;;;;;;;5176357;27;20001;-52
2022/09/07 07:07:13;;;;;;;;;;;;;;;;;;5175838;27;20009;-40
2022/09/07 07:09:40;;;;;;;;;;;;;;;;;;5176289;27;19991;-42
2022/09/07 07:12:08;;;;;;;;;;;;;;;;;;5176165;27;19923;-43
2022/09/07 07:14:35;;;;;;;;;;;;;;;;;;5175938;27;19923;-48
2022/09/07 07:17:10;;;;;;;;;;;;;;;;;;5176286;27;19922;-40
2022/09/07 07:19:37;;;;;;;;;;;;;;;;;;5157393;27;20293;-46
2022/09/07 07:22:04;;;;;;;;;;;;;;;;;;5175327;27;20142;-48
2022/09/07 07:24:52;;;;;;;;;;;;;;;;;;5157008;27;20370;-43
2022/09/07 07:27:21;;;;;;;;;;;;;;;;;;5175671;27;19923;-42
2022/09/07 07:29:48;;;;;;;;;;;;;;;;;;5175782;27;20396;-47
2022/09/07 07:32:15;;;;;;;;;;;;;;;;;;5175651;27;20304;-50
2022/09/07 07:34:43;;;;;;;;;;;;;;;;;;5175649;27;20309;-41
2022/09/07 07:37:10;;;;;;;;;;;;;;;;;;5175597;27;19964;-38
2022/09/07 07:39:38;;;;;;;;;;;;;;;;;;5175916;27;19969;-46
2022/09/07 07:42:25;;;;;;;;;;;;;;;;;;5160179;27;19923;-48
2022/09/07 07:44:53;;;;;;;;;;;;;;;;;;5175575;27;19923;-41
2022/09/07 07:47:41;;;;;;;;;;;;;;;;;;5156268;27;19926;-42
2022/09/07 07:50:08;;;;;;;;;;;;;;;;;;5175247;27;20374;-43
2022/09/07 07:52:56;;;;;;;;;;;;;;;;;;5175263;27;20000;-43
2022/09/07 07:55:44;;;;;;;;;;;;;;;;;;5175035;27;19927;-43
2022/09/07 07:58:11;;;;;;;;;;;;;;;;;;5175092;27;20345;-42
2022/09/07 08:00:39;;;;;;;;;;;;;;;;;;5175575;27;19930;-48
2022/09/07 08:03:23;;;;;;;;;;;;;;;;;;5175239;27;19926;-50
2022/09/07 08:05:50;;;;;;;;;;;;;;;;;;5174846;27;19923;-41
2022/09/07 08:08:18;;;;;;;;;;;;;;;;;;5174775;27;19934;-53
2022/09/07 08:10:46;;;;;;;;;;;;;;;;;;5174688;27;19927;-49
2022/09/07 08:13:14;;;;;;;;;;;;;;;;;;5174885;27;20446;-41
2022/09/07 08:15:44;;;;;;;;;;;;;;;;;;5175175;27;19923;-45
2022/09/07 08:18:11;;;;;;;;;;;;;;;;;;5174822;27;19930;-50
2022/09/07 08:20:39;;;;;;;;;;;;;;;;;;5175113;27;19926;-45
2022/09/07 08:23:07;;;;;;;;;;;;;;;;;;5174829;27;19927;-43
2022/09/07 08:25:36;;;;;;;;;;;;;;;;;;5175087;27;19923;-40
2022/09/07 08:28:03;;;;;;;;;;;;;;;;;;5174592;27;20006;-42
2022/09/07 08:30:30;;;;;;;;;;;;;;;;;;5174841;27;20300;-42
2022/09/07 08:32:57;;;;;;;;;;;;;;;;;;5178048;27;19923;-42
2022/09/07 08:35:25;;;;;;;;;;;;;;;;;;5179270;27;19929;-41
2022/09/07 08:37:52;;;;;;;;;;;;;;;;;;5178929;27;19922;-48
2022/09/07 08:40:19;;;;;;;;;;;;;;;;;;5178851;27;19923;-42
2022/09/07 08:42:47;;;;;;;;;;;;;;;;;;5179110;27;19923;-40
2022/09/07 08:45:24;;;;;;;;;;;;;;;;;;5178986;27;20377;-47
2022/09/07 08:47:51;;;;;;;;;;;;;;;;;;5179045;27;20297;-45
2022/09/07 08:50:42;;;;;;;;;;;;;;;;;;5178787;27;19930;-40
2022/09/07 08:53:14;;;;;;;;;;;;;;;;;;5178929;27;19923;-48
2022/09/07 08:55:59;;;;;;;;;;;;;;;;;;5178985;27;19923;-40
2022/09/07 08:58:32;;;;;;;;;;;;;;;;;;5178476;27;20357;-44
2022/09/07 09:01:17;;;;;;;;;;;;;;;;;;5178382;27;20433;-43
2022/09/07 09:04:14;;;;;;;;;;;;;;;;;;5178313;27;19933;-46
2022/09/07 09:07:18;;;;;;;;;;;;;;;;;;5178062;27;20266;-45
2022/09/07 09:10:05;;;;;;;;;;;;;;;;;;5178691;27;19927;-41
2022/09/07 09:12:45;;;;;;;;;;;;;;;;;;5178181;27;19929;-43
2022/09/07 09:15:31;;;;;;;;;;;;;;;;;;5178366;27;20386;-48
2022/09/07 09:18:16;;;;;;;;;;;;;;;;;;5178124;27;19966;-42
2022/09/07 09:20:54;;;;;;;;;;;;;;;;;;5178131;27;19973;-42
2022/09/07 09:23:25;;;;;;;;;;;;;;;;;;5178177;27;19923;-43
2022/09/07 09:25:58;;;;;;;;;;;;;;;;;;5177987;27;19931;-49
2022/09/07 09:28:28;;;;;;;;;;;;;;;;;;5178038;27;19930;-41
2022/09/07 09:30:57;;;;;;;;;;;;;;;;;;5177836;27;19927;-41
2022/09/07 09:33:26;;;;;;;;;;;;;;;;;;5137712;27;20022;-40
2022/09/07 09:36:00;;;;;;;;;;;;;;;;;;5157099;27;20402;-41
2022/09/07 09:38:32;;;;;;;;;;;;;;;;;;5156794;27;19923;-41
2022/09/07 09:41:07;;;;;;;;;;;;;;;;;;5156631;27;19923;-46
2022/09/07 09:43:42;;;;;;;;;;;;;;;;;;5137211;27;20386;-39
2022/09/07 09:46:18;;;;;;;;;;;;;;;;;;5156534;27;19923;-48
2022/09/07 09:48:49;;;;;;;;;;;;;;;;;;5156639;27;20096;-41
2022/09/07 09:51:16;;;;;;;;;;;;;;;;;;5156434;27;19927;-42
2022/09/07 09:54:06;;;;;;;;;;;;;;;;;;5155526;27;20462;-43
2022/09/07 09:56:38;;;;;;;;;;;;;;;;;;5156147;27;20529;-46
2022/09/07 09:59:17;;;;;;;;;;;;;;;;;;5155908;27;20298;-51
2022/09/07 10:02:37;;;;;;;;;;;;;;;;;;5156511;27;19927;-48
2022/09/07 10:05:29;;;;;;;;;;;;;;;;;;5114585;27;20019;-43
2022/09/07 10:07:56;;;;;;;;;;;;;;;;;;5156379;27;19927;-41
2022/09/07 10:10:25;;;;;;;;;;;;;;;;;;5156266;27;20044;-41
2022/09/07 10:12:53;;;;;;;;;;;;;;;;;;5156314;27;20332;-41
2022/09/07 10:15:30;;;;;;;;;;;;;;;;;;5156400;27;19923;-41
2022/09/07 10:18:03;;;;;;;;;;;;;;;;;;5156235;27;19972;-41
2022/09/07 10:20:33;;;;;;;;;;;;;;;;;;5170592;27;19981;-41
2022/09/07 10:23:01;;;;;;;;;;;;;;;;;;5176709;27;20448;-45
2022/09/07 10:25:36;;;;;;;;;;;;;;;;;;5176697;27;19923;-42
2022/09/07 10:28:05;;;;;;;;;;;;;;;;;;5176808;27;20014;-41
2022/09/07 10:30:55;;;;;;;;;;;;;;;;;;5176602;27;19927;-42
2022/09/07 10:33:35;;;;;;;;;;;;;;;;;;5163720;27;19944;-41
2022/09/07 10:36:06;;;;;;;;;;;;;;;;;;5176793;27;19923;-45
2022/09/07 10:38:35;;;;;;;;;;;;;;;;;;5176555;27;20018;-43
2022/09/07 10:41:08;;;;;;;;;;;;;;;;;;5176659;27;20441;-42
2022/09/07 10:43:36;;;;;;;;;;;;;;;;;;5176723;27;19922;-42
2022/09/07 10:46:18;;;;;;;;;;;;;;;;;;5176522;27;20360;-42
2022/09/07 10:49:15;;;;;;;;;;;;;;;;;;5176063;27;19926;-49
2022/09/07 10:52:00;;;;;;;;;;;;;;;;;;5176382;27;19930;-46
2022/09/07 10:54:49;;;;;;;;;;;;;;;;;;5176156;27;19927;-43
2022/09/07 10:57:20;;;;;;;;;;;;;;;;;;5176378;27;20022;-43
2022/09/07 10:59:47;;;;;;;;;;;;;;;;;;5176448;27;19927;-42
2022/09/07 11:02:43;;;;;;;;;;;;;;;;;;5176100;27;19953;-41
2022/09/07 11:05:36;;;;;;;;;;;;;;;;;;5176121;27;19927;-41
2022/09/07 11:08:14;;;;;;;;;;;;;;;;;;5175773;27;19930;-48
2022/09/07 11:10:45;;;;;;;;;;;;;;;;;;5176245;27;20450;-41
2022/09/07 11:13:15;;;;;;;;;;;;;;;;;;5175889;27;19927;-41
2022/09/07 11:15:47;;;;;;;;;;;;;;;;;;5157442;27;20393;-43
2022/09/07 11:18:26;;;;;;;;;;;;;;;;;;5175709;27;19973;-41
2022/09/07 11:20:57;;;;;;;;;;;;;;;;;;5175485;27;20369;-43
2022/09/07 11:23:42;;;;;;;;;;;;;;;;;;5175705;27;19923;-45
2022/09/07 11:26:21;;;;;;;;;;;;;;;;;;5175628;27;19922;-45
2022/09/07 11:28:51;;;;;;;;;;;;;;;;;;5175897;27;20357;-47
2022/09/07 11:31:46;;;;;;;;;;;;;;;;;;5175395;27;19923;-47
2022/09/07 11:34:20;;;;;;;;;;;;;;;;;;5175468;27;19934;-44
2022/09/07 11:36:56;;;;;;;;;;;;;;;;;;5175667;27;19923;-41
2022/09/07 11:39:34;;;;;;;;;;;;;;;;;;5175597;27;19948;-48
2022/09/07 11:42:03;;;;;;;;;;;;;;;;;;5175597;27;19929;-46
2022/09/07 11:44:54;;;;;;;;;;;;;;;;;;5175525;27;20301;-49
2022/09/07 11:47:25;;;;;;;;;;;;;;;;;;5175550;27;20293;-47
2022/09/07 11:49:54;;;;;;;;;;;;;;;;;;5175338;27;19930;-41
2022/09/07 11:52:37;;;;;;;;;;;;;;;;;;5175017;27;19930;-44
2022/09/07 11:55:10;;;;;;;;;;;;;;;;;;5175341;27;19966;-47
2022/09/07 11:57:55;;;;;;;;;;;;;;;;;;5175116;27;19960;-49
2022/09/07 12:00:27;;;;;;;;;;;;;;;;;;5174927;27;19922;-41
2022/09/07 12:03:14;;;;;;;;;;;;;;;;;;5175167;27;20402;-47
2022/09/07 12:05:45;;;;;;;;;;;;;;;;;;5175038;27;20035;-45
2022/09/07 12:08:15;;;;;;;;;;;;;;;;;;5174460;27;19930;-41
2022/09/07 12:10:54;;;;;;;;;;;;;;;;;;5175071;27;19923;-41
2022/09/07 12:13:22;;;;;;;;;;;;;;;;;;5175133;27;19923;-43
2022/09/07 12:16:08;;;;;;;;;;;;;;;;;;5175252;27;19961;-48
2022/09/07 12:18:50;;;;;;;;;;;;;;;;;;5173678;27;19929;-50
2022/09/07 12:21:36;;;;;;;;;;;;;;;;;;5167302;27;19931;-38
2022/09/07 12:24:03;;;;;;;;;;;;;;;;;;5174610;27;19975;-39
2022/09/07 12:26:34;;;;;;;;;;;;;;;;;;5174757;27;19931;-41
2022/09/07 12:29:03;;;;;;;;;;;;;;;;;;5174341;27;19926;-41
2022/09/07 12:31:51;;;;;;;;;;;;;;;;;;5174503;27;19927;-40
2022/09/07 12:34:28;;;;;;;;;;;;;;;;;;5174351;27;19930;-41
2022/09/07 12:37:00;;;;;;;;;;;;;;;;;;5174303;27;20403;-41
2022/09/07 12:39:28;;;;;;;;;;;;;;;;;;5174323;27;19923;-42
2022/09/07 12:42:04;;;;;;;;;;;;;;;;;;5174636;27;20010;-41
2022/09/07 12:45:11;;;;;;;;;;;;;;;;;;5174662;27;19923;-42
2022/09/07 12:47:39;;;;;;;;;;;;;;;;;;5122574;27;19926;-42
2022/09/07 12:50:12;;;;;;;;;;;;;;;;;;5174471;27;19926;-42
2022/09/07 12:52:39;;;;;;;;;;;;;;;;;;5174498;27;19932;-41
2022/09/07 12:55:12;;;;;;;;;;;;;;;;;;5174292;27;19966;-42
2022/09/07 12:57:59;;;;;;;;;;;;;;;;;;5174738;27;19969;-46
2022/09/07 13:00:30;;;;;;;;;;;;;;;;;;5174433;27;20322;-42
2022/09/07 13:03:03;;;;;;;;;;;;;;;;;;5174631;27;19927;-44
2022/09/07 13:05:43;;;;;;;;;;;;;;;;;;5174297;27;19923;-43
2022/09/07 13:08:17;;;;;;;;;;;;;;;;;;5174428;27;19929;-41
2022/09/07 13:10:46;;;;;;;;;;;;;;;;;;5174382;27;19967;-41
2022/09/07 13:13:14;;;;;;;;;;;;;;;;;;5174280;27;19927;-41
2022/09/07 13:15:46;;;;;;;;;;;;;;;;;;5174534;27;19922;-41
2022/09/07 13:18:26;;;;;;;;;;;;;;;;;;5173851;27;19929;-41
2022/09/07 13:21:06;;;;;;;;;;;;;;;;;;5178489;27;19923;-41
2022/09/07 13:23:34;;;;;;;;;;;;;;;;;;5178327;27;20349;-42
2022/09/07 13:26:05;;;;;;;;;;;;;;;;;;5178102;27;19990;-42
2022/09/07 13:28:52;;;;;;;;;;;;;;;;;;5177619;27;19934;-44
2022/09/07 13:31:29;;;;;;;;;;;;;;;;;;5177747;27;19929;-41
2022/09/07 13:33:56;;;;;;;;;;;;;;;;;;5178551;27;19929;-45
2022/09/07 13:36:26;;;;;;;;;;;;;;;;;;5177881;27;19923;-41
2022/09/07 13:38:54;;;;;;;;;;;;;;;;;;5178030;27;20005;-41
2022/09/07 13:41:23;;;;;;;;;;;;;;;;;;5177674;27;19929;-42
2022/09/07 13:43:54;;;;;;;;;;;;;;;;;;5177501;27;19923;-42
2022/09/07 13:46:39;;;;;;;;;;;;;;;;;;5177298;27;19930;-47
2022/09/07 13:49:18;;;;;;;;;;;;;;;;;;5177488;27;19923;-44
2022/09/07 13:51:50;;;;;;;;;;;;;;;;;;5177363;27;20331;-42
2022/09/07 13:54:24;;;;;;;;;;;;;;;;;;5177071;27;19966;-42
2022/09/07 13:56:51;;;;;;;;;;;;;;;;;;5176992;27;19969;-41
2022/09/07 13:59:18;;;;;;;;;;;;;;;;;;5177435;27;19926;-43
2022/09/07 14:01:46;;;;;;;;;;;;;;;;;;5177467;27;20331;-42
2022/09/07 14:04:21;;;;;;;;;;;;;;;;;;5159079;27;19923;-43
2022/09/07 14:06:49;;;;;;;;;;;;;;;;;;5156175;27;19931;-41
2022/09/07 14:09:19;;;;;;;;;;;;;;;;;;5156239;27;19927;-40
2022/09/07 14:11:48;;;;;;;;;;;;;;;;;;5156420;27;20331;-41
2022/09/07 14:14:24;;;;;;;;;;;;;;;;;;5156192;27;19924;-40
2022/09/07 14:16:51;;;;;;;;;;;;;;;;;;5155681;27;20331;-43
2022/09/07 14:19:23;;;;;;;;;;;;;;;;;;5160034;27;20010;-43
2022/09/07 14:21:58;;;;;;;;;;;;;;;;;;5177072;27;19926;-42
2022/09/07 14:24:28;;;;;;;;;;;;;;;;;;5175694;27;19965;-42
2022/09/07 14:26:55;;;;;;;;;;;;;;;;;;5175478;27;20017;-44
2022/09/07 14:29:24;;;;;;;;;;;;;;;;;;5175337;27;20325;-44
2022/09/07 14:31:52;;;;;;;;;;;;;;;;;;5177061;27;19971;-43
2022/09/07 14:34:21;;;;;;;;;;;;;;;;;;5176551;27;19927;-42
2022/09/07 14:36:49;;;;;;;;;;;;;;;;;;5176799;27;19926;-41
2022/09/07 14:39:18;;;;;;;;;;;;;;;;;;5176635;27;19946;-43
2022/09/07 14:41:46;;;;;;;;;;;;;;;;;;5176553;27;19958;-41
2022/09/07 14:44:25;;;;;;;;;;;;;;;;;;5176432;27;20294;-44
2022/09/07 14:46:53;;;;;;;;;;;;;;;;;;5176604;27;20390;-43
2022/09/07 14:49:23;;;;;;;;;;;;;;;;;;5176557;27;19966;-42
2022/09/07 14:51:51;;;;;;;;;;;;;;;;;;5176379;27;19969;-43
2022/09/07 14:54:38;;;;;;;;;;;;;;;;;;5175895;27;19939;-43
2022/09/07 14:57:24;;;;;;;;;;;;;;;;;;5176270;27;20327;-42
2022/09/07 14:59:52;;;;;;;;;;;;;;;;;;5176422;27;19930;-41
2022/09/07 15:02:22;;;;;;;;;;;;;;;;;;5166552;27;19962;-41
2022/09/07 15:05:09;;;;;;;;;;;;;;;;;;5154940;27;19923;-42
2022/09/07 15:07:38;;;;;;;;;;;;;;;;;;5155530;27;19933;-41
2022/09/07 15:10:12;;;;;;;;;;;;;;;;;;5136671;27;20018;-42
2022/09/07 15:12:41;;;;;;;;;;;;;;;;;;5119564;27;19930;-41
2022/09/07 15:15:09;;;;;;;;;;;;;;;;;;5136738;27;20367;-41
2022/09/07 15:17:36;;;;;;;;;;;;;;;;;;5154980;27;19923;-45
2022/09/07 15:20:29;;;;;;;;;;;;;;;;;;5166516;27;19933;-42
2022/09/07 15:22:58;;;;;;;;;;;;;;;;;;5175733;27;19969;-52
2022/09/07 15:25:25;;;;;;;;;;;;;;;;;;5175549;27;20370;-45
2022/09/07 15:27:53;;;;;;;;;;;;;;;;;;5175913;27;19933;-46
2022/09/07 15:30:20;;;;;;;;;;;;;;;;;;5175680;27;19923;-44
2022/09/07 15:32:47;;;;;;;;;;;;;;;;;;5175780;27;19927;-42
2022/09/07 15:35:15;;;;;;;;;;;;;;;;;;5175664;27;19927;-42
2022/09/07 15:37:43;;;;;;;;;;;;;;;;;;5175557;27;19923;-47
2022/09/07 15:40:37;;;;;;;;;;;;;;;;;;5174968;27;19926;-41
2022/09/07 15:43:13;;;;;;;;;;;;;;;;;;5174995;27;20009;-41
2022/09/07 15:45:47;;;;;;;;;;;;;;;;;;5175486;27;20292;-42
2022/09/07 15:48:19;;;;;;;;;;;;;;;;;;5175251;27;19923;-43
2022/09/07 15:50:47;;;;;;;;;;;;;;;;;;5175348;27;19949;-42
2022/09/07 15:53:16;;;;;;;;;;;;;;;;;;5175130;27;19929;-44
2022/09/07 15:56:03;;;;;;;;;;;;;;;;;;5175595;27;19927;-45
2022/09/07 15:58:31;;;;;;;;;;;;;;;;;;5174900;27;19931;-43
2022/09/07 16:00:59;;;;;;;;;;;;;;;;;;5175030;27;19922;-45
2022/09/07 16:03:53;;;;;;;;;;;;;;;;;;5174916;27;20044;-48
2022/09/07 16:06:21;;;;;;;;;;;;;;;;;;5174859;27;19927;-46
2022/09/07 16:08:48;;;;;;;;;;;;;;;;;;5174994;27;19926;-44
2022/09/07 16:11:22;;;;;;;;;;;;;;;;;;5175197;27;19923;-42
2022/09/07 16:14:13;;;;;;;;;;;;;;;;;;5174858;27;19923;-45
2022/09/07 16:16:40;;;;;;;;;;;;;;;;;;5173276;27;19947;-47
2022/09/07 16:19:28;;;;;;;;;;;;;;;;;;5174580;27;19953;-48
2022/09/07 16:22:00;;;;;;;;;;;;;;;;;;5174513;27;19977;-45
2022/09/07 16:24:31;;;;;;;;;;;;;;;;;;5174583;27;19946;-47
2022/09/07 16:26:59;;;;;;;;;;;;;;;;;;5174639;27;19923;-45
2022/09/07 16:29:26;;;;;;;;;;;;;;;;;;5174522;27;19923;-48
2022/09/07 16:31:53;;;;;;;;;;;;;;;;;;5174125;27;20017;-46
2022/09/07 16:34:40;;;;;;;;;;;;;;;;;;5174594;27;20374;-45
2022/09/07 16:37:10;;;;;;;;;;;;;;;;;;5174805;27;19931;-45
2022/09/07 16:39:37;;;;;;;;;;;;;;;;;;5175274;27;19923;-42
2022/09/07 16:42:05;;;;;;;;;;;;;;;;;;5174796;27;19946;-45
2022/09/07 16:44:33;;;;;;;;;;;;;;;;;;5174797;27;19927;-41
2022/09/07 16:47:01;;;;;;;;;;;;;;;;;;5174507;27;19923;-41
2022/09/07 16:49:28;;;;;;;;;;;;;;;;;;5174294;27;20006;-47
2022/09/07 16:51:55;;;;;;;;;;;;;;;;;;5174570;27;20013;-49
2022/09/07 16:54:25;;;;;;;;;;;;;;;;;;5177112;27;20374;-44
2022/09/07 16:56:53;;;;;;;;;;;;;;;;;;5178968;27;19926;-42
2022/09/07 16:59:25;;;;;;;;;;;;;;;;;;5178870;27;19927;-45
2022/09/07 17:01:52;;;;;;;;;;;;;;;;;;5178552;27;19962;-41
2022/09/07 17:04:21;;;;;;;;;;;;;;;;;;5178534;27;20033;-48
2022/09/07 17:06:51;;;;;;;;;;;;;;;;;;5177802;27;20321;-47
2022/09/07 17:09:25;;;;;;;;;;;;;;;;;;5177968;27;20401;-46
2022/09/07 17:11:52;;;;;;;;;;;;;;;;;;5176679;27;20009;-49
2022/09/07 17:14:19;;;;;;;;;;;;;;;;;;5176148;27;19931;-45
2022/09/07 17:16:47;;;;;;;;;;;;;;;;;;5177040;27;19974;-47
2022/09/07 17:19:15;;;;;;;;;;;;;;;;;;5177571;27;19930;-45
2022/09/07 17:21:59;;;;;;;;;;;;;;;;;;5177786;27;19923;-50